Time;durP1;ratioP1;P1;durP2;ratioP2;P2;SDS_P1;SDS_P2;PMS_P1;PMS_P2;Temp;Humidity;BMP_temperature;BMP_pressure;BME280_temperature;BME280_humidity;BME280_pressure;Samples;Min_cycle;Max_cycle;Signal;HPM_P1;HPM_P2
2021/12/19 00:00:09;;;;;;;41.28;14.52;;;;;;;6.16;97.65;103678.78;5011660;28;20029;-69
2021/12/19 00:03:00;;;;;;;43.13;15.40;;;;;;;6.15;97.46;103670.88;5011093;28;20108;-69
2021/12/19 00:08:34;;;;;;;44.63;16.67;;;;;;;6.15;97.16;103661.41;5011613;28;20103;-69
2021/12/19 00:11:00;;;;;;;39.28;14.05;;;;;;;6.16;97.13;103662.34;5014793;28;20480;-69
2021/12/19 00:13:26;;;;;;;42.28;14.98;;;;;;;6.16;97.24;103660.66;5011968;28;20066;-69
2021/12/19 00:15:53;;;;;;;41.65;13.82;;;;;;;6.15;97.72;103657.94;5010712;28;20117;-69
2021/12/19 00:18:19;;;;;;;42.13;13.88;;;;;;;6.14;97.52;103649.28;5011789;28;20022;-69
2021/12/19 00:20:44;;;;;;;40.85;13.10;;;;;;;6.15;97.38;103657.94;5011130;28;20469;-69
2021/12/19 00:23:10;;;;;;;39.67;13.30;;;;;;;6.15;97.35;103656.25;5011151;28;20037;-69
2021/12/19 00:25:36;;;;;;;40.42;13.40;;;;;;;6.15;97.42;103647.59;5011401;28;20032;-69
2021/12/19 00:28:01;;;;;;;40.15;13.38;;;;;;;6.14;97.46;103648.34;5011303;28;20092;-69
2021/12/19 00:30:26;;;;;;;39.72;13.85;;;;;;;6.15;97.25;103650.16;5000467;28;20432;-69
2021/12/19 00:32:52;;;;;;;38.92;12.55;;;;;;;6.13;97.56;103642.28;5026315;28;20378;-69
2021/12/19 00:35:17;;;;;;;40.95;12.75;;;;;;;6.12;97.05;103635.28;5007896;28;20396;-69
2021/12/19 00:37:43;;;;;;;39.15;11.98;;;;;;;6.12;97.62;103637.84;5011042;28;20451;-69
2021/12/19 00:40:09;;;;;;;36.22;12.27;;;;;;;6.12;97.16;103642.13;5011204;28;20029;-69
2021/12/19 00:42:36;;;;;;;38.05;12.77;;;;;;;6.12;97.26;103648.22;5011160;28;20025;-69
2021/12/19 00:45:16;;;;;;;42.60;13.43;;;;;;;6.10;97.88;103642.00;5002300;28;20033;-69
2021/12/19 00:47:45;;;;;;;40.22;13.25;;;;;;;6.11;97.36;103640.31;5007113;28;20117;-69
2021/12/19 00:50:12;;;;;;;44.25;14.35;;;;;;;6.08;97.88;103631.53;5011000;28;20504;-69
2021/12/19 00:52:37;;;;;;;44.22;13.60;;;;;;;6.08;97.61;103636.69;5004766;28;20402;-69
2021/12/19 00:55:03;;;;;;;43.95;13.55;;;;;;;6.09;97.81;103635.91;5007709;28;20030;-69
2021/12/19 00:57:28;;;;;;;48.67;14.07;;;;;;;6.10;97.86;103639.41;5010286;28;20260;-69
2021/12/19 00:59:54;;;;;;;45.90;14.45;;;;;;;6.10;98.19;103631.66;5011443;28;20030;-69
2021/12/19 01:02:19;;;;;;;51.38;14.45;;;;;;;6.08;97.98;103628.94;5001711;28;20411;-69
2021/12/19 01:04:44;;;;;;;42.45;12.77;;;;;;;6.08;97.54;103636.69;5003682;28;20030;-69
2021/12/19 01:07:10;;;;;;;42.40;12.10;;;;;;;6.07;97.69;103636.56;5009330;28;20034;-69
2021/12/19 01:09:35;;;;;;;34.75;10.85;;;;;;;6.08;97.75;103633.19;5010364;28;20025;-69
2021/12/19 01:12:01;;;;;;;40.10;11.20;;;;;;;6.05;97.98;103632.91;5011340;28;20037;-69
2021/12/19 01:14:26;;;;;;;40.35;11.07;;;;;;;6.04;98.09;103632.03;5010913;28;20600;-69
2021/12/19 01:16:52;;;;;;;41.78;12.02;;;;;;;6.05;97.76;103625.16;5011279;28;20224;-69
2021/12/19 01:19:17;;;;;;;42.42;12.82;;;;;;;6.04;98.03;103621.66;5008520;28;20033;-69
2021/12/19 01:21:44;;;;;;;44.60;12.07;;;;;;;6.05;97.69;103626.09;5010563;28;20034;-69
2021/12/19 01:24:09;;;;;;;44.80;12.23;;;;;;;6.03;98.23;103609.50;5002405;28;20060;-69
2021/12/19 01:26:34;;;;;;;43.83;11.70;;;;;;;6.04;98.17;103621.66;5009918;28;20100;-69
2021/12/19 01:29:00;;;;;;;47.45;12.23;;;;;;;6.03;97.72;103617.25;5009410;28;20049;-69
2021/12/19 01:31:25;;;;;;;47.47;12.85;;;;;;;6.05;97.77;103617.38;5010868;28;20022;-69
2021/12/19 01:33:50;;;;;;;47.72;13.90;;;;;;;6.04;98.11;103616.50;5010541;28;20034;-69
2021/12/19 01:36:16;;;;;;;47.50;13.10;;;;;;;6.04;98.38;103616.50;5010464;28;20034;-70
2021/12/19 01:38:41;;;;;;;46.53;11.20;;;;;;;6.04;97.99;103612.97;5008735;28;20059;-70
2021/12/19 01:41:07;;;;;;;45.10;12.00;;;;;;;6.04;97.89;103610.38;5006102;28;20509;-69
2021/12/19 01:43:32;;;;;;;43.17;12.80;;;;;;;6.02;97.89;103609.38;5009004;28;20058;-69
2021/12/19 01:45:58;;;;;;;44.28;12.63;;;;;;;6.01;97.54;103611.06;5010849;28;20115;-69
2021/12/19 01:48:24;;;;;;;41.92;12.27;;;;;;;6.02;97.82;103617.13;5010128;28;20071;-69
2021/12/19 01:50:51;;;;;;;40.75;12.45;;;;;;;6.01;97.67;103607.53;5010320;28;20477;-69
2021/12/19 01:53:16;;;;;;;41.00;11.55;;;;;;;6.00;97.66;103600.56;5009705;28;20037;-69
2021/12/19 01:55:44;;;;;;;43.35;11.60;;;;;;;5.99;97.55;103606.50;5001819;28;20593;-69
2021/12/19 01:58:10;;;;;;;39.10;11.38;;;;;;;5.99;97.77;103602.22;5008953;28;20574;-69
2021/12/19 02:00:48;;;;;;;42.97;12.20;;;;;;;5.99;97.89;103604.81;5004100;28;20105;-69
2021/12/19 02:03:15;;;;;;;45.08;12.35;;;;;;;5.99;97.88;103596.16;5000205;28;20389;-69
2021/12/19 02:05:41;;;;;;;43.38;12.07;;;;;;;5.97;97.79;103596.03;5010741;28;20057;-69
2021/12/19 02:08:07;;;;;;;45.35;12.80;;;;;;;5.96;98.01;103591.59;5009418;28;20128;-72
2021/12/19 02:10:34;;;;;;;44.38;12.90;;;;;;;5.96;98.27;103586.41;5009720;28;20026;-72
2021/12/19 02:13:02;;;;;;;43.28;12.05;;;;;;;5.96;98.08;103588.09;5008996;28;20053;-72
2021/12/19 02:15:29;;;;;;;48.33;12.70;;;;;;;5.94;98.36;103587.97;5010449;28;20034;-72
2021/12/19 02:17:58;;;;;;;50.95;13.63;;;;;;;5.93;98.05;103594.81;5009741;28;20104;-72
2021/12/19 02:20:26;;;;;;;43.50;13.10;;;;;;;5.93;98.31;103592.22;5008570;28;20053;-72
2021/12/19 02:22:51;;;;;;;54.95;13.93;;;;;;;5.94;98.21;103590.56;5009087;28;20026;-72
2021/12/19 02:25:17;;;;;;;50.30;13.98;;;;;;;5.93;98.44;103587.03;5009223;28;20096;-72
2021/12/19 02:27:44;;;;;;;55.50;15.27;;;;;;;5.93;98.25;103592.22;5008749;28;20033;-72
2021/12/19 02:30:11;;;;;;;56.03;14.88;;;;;;;5.93;98.07;103583.56;5009521;28;20497;-72
2021/12/19 02:32:39;;;;;;;55.50;15.10;;;;;;;5.93;98.24;103575.78;5008880;28;20030;-72
2021/12/19 02:35:07;;;;;;;56.05;14.95;;;;;;;5.92;98.04;103571.38;5009903;28;20401;-72
2021/12/19 02:38:05;;;;;;;63.40;16.77;;;;;;;5.92;98.01;103568.78;5009406;28;20022;-69
2021/12/19 02:40:40;;;;;;;53.72;14.18;;;;;;;5.93;98.08;103565.44;4997856;28;20034;-69
2021/12/19 02:48:33;;;;;;;53.55;14.95;;;;;;;5.92;98.70;103558.44;5008914;28;20040;-69
2021/12/19 02:51:01;;;;;;;59.80;16.80;;;;;;;5.92;98.11;103566.22;5009440;28;20033;-69
2021/12/19 02:53:35;;;;;;;59.55;15.23;;;;;;;5.91;98.10;103556.66;5008969;28;20505;-69
2021/12/19 02:56:07;;;;;;;53.83;14.35;;;;;;;5.88;98.19;103552.13;5008759;28;20519;-69
2021/12/19 02:58:34;;;;;;;54.33;14.27;;;;;;;5.87;97.83;103544.22;5003940;28;20064;-69
2021/12/19 03:01:01;;;;;;;54.20;14.23;;;;;;;5.87;97.75;103549.41;4999522;28;20034;-69
2021/12/19 03:03:27;;;;;;;56.90;15.40;;;;;;;5.86;97.68;103543.28;5008680;28;20030;-69
2021/12/19 03:05:52;;;;;;;53.20;14.63;;;;;;;5.84;98.13;103550.03;5009854;28;20044;-69
2021/12/19 03:08:18;;;;;;;58.70;16.90;;;;;;;5.86;97.66;103547.56;5009013;28;20032;-69
2021/12/19 03:11:15;;;;;;;57.15;16.45;;;;;;;5.85;97.88;103544.09;5003742;28;20382;-69
2021/12/19 03:18:58;;;;;;;57.85;16.63;;;;;;;5.84;98.09;103538.78;4994206;28;20464;-69
2021/12/19 03:21:25;;;;;;;61.67;17.95;;;;;;;5.83;98.41;103539.56;5002824;28;20106;-69
2021/12/19 03:23:50;;;;;;;66.50;18.02;;;;;;;5.84;98.23;103538.78;5008144;28;20428;-69
2021/12/19 03:26:16;;;;;;;62.47;17.73;;;;;;;5.83;98.70;103532.69;5009015;28;20544;-69
2021/12/19 03:28:41;;;;;;;56.47;16.20;;;;;;;5.82;98.43;103525.72;5000102;28;20038;-69
2021/12/19 03:31:07;;;;;;;66.18;18.02;;;;;;;5.83;98.22;103522.34;5009120;28;20026;-69
2021/12/19 03:33:35;;;;;;;63.40;17.48;;;;;;;5.83;98.59;103518.84;5008612;28;20076;-69
2021/12/19 03:36:00;;;;;;;58.95;16.10;;;;;;;5.81;98.18;103513.53;5010636;28;20141;-69
2021/12/19 03:38:26;;;;;;;69.20;17.90;;;;;;;5.82;98.73;103514.44;5011446;28;20038;-69
2021/12/19 03:40:55;;;;;;;61.72;17.40;;;;;;;5.81;99.00;103518.72;5012315;28;20088;-69
2021/12/19 03:43:24;;;;;;;71.32;17.05;;;;;;;5.81;98.57;103516.13;5012095;28;20033;-69
2021/12/19 03:45:50;;;;;;;73.55;16.38;;;;;;;5.81;98.91;103513.53;5012494;28;20073;-69
2021/12/19 03:48:16;;;;;;;64.63;16.13;;;;;;;5.81;98.96;103512.63;5011943;28;20065;-69
2021/12/19 03:50:46;;;;;;;60.72;16.02;;;;;;;5.80;99.01;103505.66;5011167;28;20523;-69
2021/12/19 03:53:13;;;;;;;52.15;13.32;;;;;;;5.80;98.30;103509.13;5011110;28;20037;-69
2021/12/19 03:55:39;;;;;;;58.92;14.43;;;;;;;5.75;98.55;103508.75;5012792;28;20084;-69
2021/12/19 03:58:05;;;;;;;48.72;13.45;;;;;;;5.75;98.28;103503.56;5010056;28;20504;-69
2021/12/19 04:00:31;;;;;;;36.58;10.55;;;;;;;5.72;98.27;103500.72;5011231;28;20037;-69
2021/12/19 04:03:03;;;;;;;36.55;10.50;;;;;;;5.71;98.44;103500.59;5011850;28;20503;-69
2021/12/19 04:05:28;;;;;;;39.35;10.27;;;;;;;5.70;98.17;103493.59;5002182;28;20042;-69
2021/12/19 04:07:54;;;;;;;39.13;10.52;;;;;;;5.69;98.42;103502.13;5011854;28;20374;-69
2021/12/19 04:10:21;;;;;;;37.97;10.13;;;;;;;5.68;97.97;103497.75;5001342;28;20461;-69
2021/12/19 04:12:48;;;;;;;41.15;10.10;;;;;;;5.67;98.21;103502.00;5010979;28;20041;-69
2021/12/19 04:15:13;;;;;;;33.70;8.93;;;;;;;5.66;97.69;103492.44;5011555;28;20068;-69
2021/12/19 04:17:39;;;;;;;35.03;9.10;;;;;;;5.65;97.80;103495.78;5011894;28;20476;-69
2021/12/19 04:20:05;;;;;;;38.03;10.13;;;;;;;5.64;97.88;103493.06;5019319;28;20560;-69
2021/12/19 04:22:31;;;;;;;37.13;10.10;;;;;;;5.64;98.08;103482.72;5012321;28;20673;-69
2021/12/19 04:24:56;;;;;;;36.65;9.50;;;;;;;5.63;98.12;103483.50;5010659;28;20056;-69
2021/12/19 04:27:22;;;;;;;35.25;9.82;;;;;;;5.62;97.64;103479.09;5011492;28;20105;-69
2021/12/19 04:29:49;;;;;;;37.95;9.57;;;;;;;5.60;97.86;103478.97;5010368;28;20030;-69
2021/12/19 04:32:17;;;;;;;32.45;9.30;;;;;;;5.58;97.53;103473.66;5011310;28;20457;-69
2021/12/19 04:34:42;;;;;;;32.03;8.43;;;;;;;5.56;97.27;103471.69;5001933;28;20204;-69
2021/12/19 04:37:27;;;;;;;31.00;8.88;;;;;;;5.54;97.29;103466.41;5011500;28;20476;-69
2021/12/19 04:40:12;;;;;;;32.78;7.82;;;;;;;5.52;97.18;103467.97;5010199;28;20046;-69
2021/12/19 04:56:36;;;;;;;21.92;6.97;;;;;;;5.42;97.37;103454.09;4999058;28;20068;-69
2021/12/19 05:15:01;;;;;;;30.90;8.95;;;;;;;5.40;98.01;103431.59;5010907;28;20095;-69
2021/12/19 05:17:29;;;;;;;25.42;7.78;;;;;;;5.41;98.16;103442.84;5010612;28;20034;-70
2021/12/19 05:20:14;;;;;;;35.58;9.13;;;;;;;5.40;97.46;103444.53;5007679;28;20225;-70
2021/12/19 05:22:47;;;;;;;31.15;8.35;;;;;;;5.40;97.97;103439.38;5010732;28;20022;-70
2021/12/19 05:25:17;;;;;;;34.75;8.40;;;;;;;5.40;97.64;103446.19;5005072;28;20069;-70
2021/12/19 05:27:48;;;;;;;34.80;8.27;;;;;;;5.38;98.14;103440.00;5010761;28;20116;-70
2021/12/19 05:30:14;;;;;;;36.22;8.07;;;;;;;5.38;97.88;103446.06;5001755;28;20033;-70
2021/12/19 05:32:42;;;;;;;34.60;8.60;;;;;;;5.38;98.38;103451.22;5010553;28;20104;-69
2021/12/19 05:35:10;;;;;;;36.38;9.32;;;;;;;5.38;97.71;103447.75;5005355;28;20026;-69
2021/12/19 05:45:46;;;;;;;24.65;6.22;;;;;;;5.36;97.87;103433.81;4998297;28;20037;-69
2021/12/19 05:48:12;;;;;;;25.60;6.57;;;;;;;5.37;97.76;103441.69;5009732;28;20034;-69
2021/12/19 05:50:39;;;;;;;27.50;6.72;;;;;;;5.35;97.81;103443.22;5008771;28;20018;-69
2021/12/19 05:53:05;;;;;;;25.85;6.30;;;;;;;5.35;96.91;103443.22;5010129;28;20033;-69
2021/12/19 05:55:31;;;;;;;22.42;5.95;;;;;;;5.33;96.95;103434.44;5010240;28;20022;-70
2021/12/19 05:57:56;;;;;;;24.27;6.13;;;;;;;5.31;96.98;103422.16;5008190;28;20049;-69
2021/12/19 06:00:22;;;;;;;24.85;5.95;;;;;;;5.30;97.49;103416.06;5008602;28;20048;-69
2021/12/19 06:02:48;;;;;;;21.35;5.95;;;;;;;5.29;97.42;103418.53;5009776;28;20061;-69
2021/12/19 06:05:13;;;;;;;23.30;5.57;;;;;;;5.29;97.28;103413.38;5009694;28;20037;-69
2021/12/19 06:07:39;;;;;;;22.27;5.63;;;;;;;5.29;97.25;103413.38;5008437;28;20037;-69
2021/12/19 06:10:05;;;;;;;21.08;5.72;;;;;;;5.27;97.03;103413.22;5009796;28;20034;-69
2021/12/19 06:12:31;;;;;;;20.30;6.00;;;;;;;5.27;97.37;103417.47;5009240;28;20024;-69
2021/12/19 06:14:57;;;;;;;19.75;6.10;;;;;;;5.27;97.02;103414.88;5002659;28;20033;-69
2021/12/19 06:17:22;;;;;;;26.77;6.95;;;;;;;5.27;97.24;103414.88;5009889;28;20026;-69
2021/12/19 06:19:47;;;;;;;22.85;6.32;;;;;;;5.26;97.76;103414.00;5009541;28;20480;-69
2021/12/19 06:22:13;;;;;;;24.65;6.53;;;;;;;5.28;97.79;103415.03;5008167;28;20029;-69
2021/12/19 06:24:38;;;;;;;24.42;7.57;;;;;;;5.27;97.59;103420.06;5011220;28;20038;-69
2021/12/19 06:27:04;;;;;;;24.85;7.30;;;;;;;5.26;97.84;103416.59;5010402;28;20036;-69
2021/12/19 06:29:30;;;;;;;27.75;6.55;;;;;;;5.27;97.98;103423.56;5008543;28;20029;-69
2021/12/19 06:31:56;;;;;;;24.88;7.47;;;;;;;5.27;98.04;103414.88;5007947;28;20037;-69
2021/12/19 06:34:22;;;;;;;25.25;7.63;;;;;;;5.27;97.82;103412.31;5004194;28;20049;-70
2021/12/19 06:36:49;;;;;;;24.70;7.45;;;;;;;5.27;98.06;103413.22;5004247;28;20018;-69
2021/12/19 06:39:15;;;;;;;25.77;7.25;;;;;;;5.28;98.15;103402.09;5019093;28;20109;-69
2021/12/19 06:41:40;;;;;;;26.67;7.38;;;;;;;5.31;98.15;103404.03;5000517;28;20258;-69
2021/12/19 06:44:06;;;;;;;29.10;7.80;;;;;;;5.30;97.61;103404.81;5000113;28;20500;-69
2021/12/19 06:46:31;;;;;;;25.42;7.47;;;;;;;5.28;98.10;103407.25;5006097;28;20036;-69
2021/12/19 06:48:57;;;;;;;26.02;7.70;;;;;;;5.27;97.90;103392.56;5005851;28;20034;-69
2021/12/19 06:51:22;;;;;;;28.98;8.35;;;;;;;5.29;98.06;103395.25;5004578;28;20018;-69
2021/12/19 06:53:48;;;;;;;30.83;9.27;;;;;;;5.28;97.98;103388.28;5006278;28;20025;-69
2021/12/19 06:56:14;;;;;;;32.83;9.05;;;;;;;5.27;97.89;103377.03;5008417;28;20675;-69
2021/12/19 06:58:40;;;;;;;28.50;8.68;;;;;;;5.27;98.16;103370.94;5002574;28;20104;-69
2021/12/19 07:01:05;;;;;;;30.15;8.98;;;;;;;5.27;98.50;103369.28;5001060;28;20038;-69
2021/12/19 07:03:31;;;;;;;34.08;9.52;;;;;;;5.27;98.57;103370.94;4999443;28;20268;-69
2021/12/19 07:05:56;;;;;;;35.35;8.93;;;;;;;5.28;98.64;103367.59;4997240;28;20485;-69
2021/12/19 07:08:21;;;;;;;37.25;9.40;;;;;;;5.27;98.63;103369.28;5001397;28;20061;-69
2021/12/19 07:10:48;;;;;;;33.42;9.25;;;;;;;5.29;98.31;103365.13;5002908;28;20014;-69
2021/12/19 07:13:19;;;;;;;37.30;9.85;;;;;;;5.30;98.46;103364.38;5002349;28;20058;-69
2021/12/19 07:15:45;;;;;;;35.85;11.23;;;;;;;5.31;98.51;103368.75;5010601;28;20034;-69
2021/12/19 07:18:11;;;;;;;35.85;10.00;;;;;;;5.31;98.82;103367.84;5000330;28;20130;-69
2021/12/19 07:20:41;;;;;;;39.88;10.75;;;;;;;5.32;98.81;103365.41;5011430;28;20113;-69
2021/12/19 07:23:06;;;;;;;38.08;10.68;;;;;;;5.32;98.67;103365.41;5001354;28;20034;-65
2021/12/19 07:25:32;;;;;;;39.42;11.07;;;;;;;5.33;98.80;103362.06;5008519;28;20029;-65
2021/12/19 07:27:57;;;;;;;40.33;11.25;;;;;;;5.35;98.41;103370.81;5011001;28;20048;-65
2021/12/19 07:30:25;;;;;;;37.20;10.60;;;;;;;5.35;98.78;103363.06;5009809;28;20113;-65
2021/12/19 07:32:51;;;;;;;37.17;10.73;;;;;;;5.35;98.82;103355.31;5012414;28;20030;-65
2021/12/19 07:35:16;;;;;;;34.30;10.45;;;;;;;5.36;98.90;103351.97;5012283;28;20080;-65
2021/12/19 07:37:41;;;;;;;38.72;10.90;;;;;;;5.37;98.60;103351.19;5011955;28;20108;-65
2021/12/19 07:40:15;;;;;;;35.15;10.43;;;;;;;5.38;99.07;103350.41;5009511;28;20029;-65
2021/12/19 07:42:41;;;;;;;39.22;11.05;;;;;;;5.39;98.85;103352.22;5004826;28;20040;-65
2021/12/19 07:45:07;;;;;;;38.70;10.95;;;;;;;5.40;99.03;103354.03;5012421;28;20554;-65
2021/12/19 07:47:33;;;;;;;41.00;12.90;;;;;;;5.39;98.74;103346.16;5011052;28;20026;-65
2021/12/19 07:49:59;;;;;;;33.83;11.35;;;;;;;5.42;99.41;103343.84;5009013;28;20072;-65
2021/12/19 07:52:24;;;;;;;37.90;11.40;;;;;;;5.43;98.96;103343.06;5010555;28;20033;-65
2021/12/19 07:54:49;;;;;;;41.35;12.25;;;;;;;5.44;99.19;103339.69;5012553;28;20022;-65
2021/12/19 07:57:15;;;;;;;37.53;12.05;;;;;;;5.44;99.09;103329.34;5011827;28;20043;-65
2021/12/19 07:59:40;;;;;;;33.30;11.15;;;;;;;5.45;99.07;103331.16;5012207;28;20540;-65
2021/12/19 08:02:05;;;;;;;38.72;11.05;;;;;;;5.48;99.51;103343.44;5011686;28;20042;-65
2021/12/19 08:04:31;;;;;;;36.50;11.43;;;;;;;5.47;99.22;103332.19;5011894;28;20033;-65
2021/12/19 08:06:57;;;;;;;34.40;11.05;;;;;;;5.48;99.26;103333.09;5007513;28;20040;-65
2021/12/19 08:09:35;;;;;;;36.83;11.38;;;;;;;5.47;99.49;103337.34;5002046;28;20112;-65
2021/12/19 08:12:03;;;;;;;38.70;11.37;;;;;;;5.50;99.27;103328.94;5008439;28;20453;-65
2021/12/19 08:14:28;;;;;;;37.00;11.25;;;;;;;5.50;99.56;103328.94;5011769;28;20842;-65
2021/12/19 08:16:53;;;;;;;38.78;11.60;;;;;;;5.51;99.56;103330.78;5012203;28;20144;-65
2021/12/19 08:19:18;;;;;;;32.97;10.65;;;;;;;5.53;99.28;103331.78;5011378;28;20030;-65
2021/12/19 08:21:44;;;;;;;34.75;11.32;;;;;;;5.53;99.67;103332.72;5010957;28;20022;-65
2021/12/19 08:24:11;;;;;;;32.30;10.40;;;;;;;5.55;99.64;103327.69;5011525;28;20030;-65
2021/12/19 08:26:39;;;;;;;31.98;10.27;;;;;;;5.56;99.68;103326.88;5011457;28;20029;-65
2021/12/19 08:29:04;;;;;;;33.30;10.82;;;;;;;5.57;99.49;103316.66;5011551;28;20080;-65
2021/12/19 08:31:30;;;;;;;26.52;8.98;;;;;;;5.60;99.97;103316.00;5011841;28;20473;-65
2021/12/19 08:33:55;;;;;;;27.65;9.23;;;;;;;5.59;99.85;103319.41;5001584;28;20033;-65
2021/12/19 08:36:20;;;;;;;29.60;10.07;;;;;;;5.63;100.00;103324.03;5008872;28;20455;-65
2021/12/19 08:38:47;;;;;;;23.98;9.43;;;;;;;5.64;100.00;103327.53;5011742;28;20181;-65
2021/12/19 08:41:13;;;;;;;27.63;8.88;;;;;;;5.65;99.68;103325.09;5009618;28;20037;-65
2021/12/19 08:43:38;;;;;;;23.25;7.85;;;;;;;5.67;100.00;103323.50;5006345;28;20038;-65
2021/12/19 08:46:06;;;;;;;23.35;8.18;;;;;;;5.70;100.00;103331.53;5007967;28;20401;-65
2021/12/19 08:48:32;;;;;;;26.27;7.75;;;;;;;5.69;100.00;103324.56;5011413;28;20045;-65
2021/12/19 08:50:57;;;;;;;25.10;7.63;;;;;;;5.73;99.82;103325.72;5011453;28;20018;-65
2021/12/19 08:53:23;;;;;;;23.98;7.85;;;;;;;5.75;99.97;103321.59;5007709;28;20029;-65
2021/12/19 08:55:48;;;;;;;21.75;7.38;;;;;;;5.75;99.90;103314.72;5010232;28;20456;-65
2021/12/19 08:58:13;;;;;;;19.88;7.18;;;;;;;5.80;100.00;103319.38;5010607;28;20123;-65
2021/12/19 09:00:39;;;;;;;21.08;6.50;;;;;;;5.80;100.00;103315.09;5009283;28;20033;-65
2021/12/19 09:03:05;;;;;;;23.20;7.45;;;;;;;5.81;100.00;103309.16;5010115;28;20040;-65
2021/12/19 09:05:31;;;;;;;23.92;7.20;;;;;;;5.83;99.70;103310.16;5005349;28;20029;-65
2021/12/19 09:07:57;;;;;;;22.25;8.25;;;;;;;5.84;100.00;103306.81;5007453;28;20169;-65
2021/12/19 09:10:23;;;;;;;21.35;7.30;;;;;;;5.86;99.95;103314.69;5010429;28;20041;-65
2021/12/19 09:12:49;;;;;;;19.85;6.47;;;;;;;5.86;99.87;103300.06;5011989;28;20452;-65
2021/12/19 09:15:15;;;;;;;19.85;6.72;;;;;;;5.87;99.44;103301.88;5009688;28;20112;-65
2021/12/19 09:17:40;;;;;;;17.95;6.32;;;;;;;5.87;99.33;103303.59;5010417;28;20105;-65
2021/12/19 09:20:07;;;;;;;17.48;6.57;;;;;;;5.87;99.39;103304.47;5009987;28;20026;-65
2021/12/19 09:22:33;;;;;;;16.77;5.95;;;;;;;5.90;99.63;103294.38;5010741;28;20056;-65
2021/12/19 09:24:59;;;;;;;17.60;6.22;;;;;;;5.91;99.42;103298.78;4996854;28;20034;-65
2021/12/19 09:27:24;;;;;;;18.80;5.60;;;;;;;5.93;99.95;103301.50;5010209;28;20550;-65
2021/12/19 09:29:49;;;;;;;15.85;5.43;;;;;;;5.93;99.89;103296.31;5009774;28;20730;-65
2021/12/19 09:32:14;;;;;;;16.63;5.78;;;;;;;5.94;99.62;103303.31;5010367;28;20032;-65
2021/12/19 09:34:41;;;;;;;17.00;5.90;;;;;;;5.95;99.95;103296.44;5010282;28;20543;-65
2021/12/19 09:37:06;;;;;;;20.33;6.40;;;;;;;5.96;99.49;103296.56;5003443;28;20065;-65
2021/12/19 09:39:32;;;;;;;19.92;6.38;;;;;;;5.98;99.64;103294.13;5008573;28;20065;-65
2021/12/19 09:42:02;;;;;;;21.90;6.47;;;;;;;5.99;99.60;103296.84;5010610;28;20073;-65
2021/12/19 09:44:27;;;;;;;;;;;;;;;6.04;99.31;103294.63;4998846;28;20503;-65
2021/12/19 09:46:53;;;;;;;21.27;6.30;;;;;;;6.04;99.67;103303.31;5009941;28;19913;-65
2021/12/19 09:49:20;;;;;;;18.67;6.47;;;;;;;6.04;99.63;103292.97;5008973;28;20079;-65
2021/12/19 09:51:47;;;;;;;18.77;6.43;;;;;;;6.04;99.57;103295.56;5010414;28;20080;-65
2021/12/19 09:54:13;;;;;;;18.80;6.00;;;;;;;6.06;99.78;103293.97;5009202;28;20029;-65
2021/12/19 09:56:40;;;;;;;18.88;5.93;;;;;;;6.06;100.00;103293.97;5007563;28;20029;-65
2021/12/19 09:59:11;;;;;;;18.48;5.85;;;;;;;6.07;99.70;103293.22;5009071;28;20089;-65
2021/12/19 10:01:38;;;;;;;18.42;6.20;;;;;;;6.09;100.00;103298.50;5008903;28;20060;-65
2021/12/19 10:04:04;;;;;;;26.02;8.00;;;;;;;6.09;99.77;103307.16;5009586;28;20034;-65
2021/12/19 10:06:31;;;;;;;21.63;7.05;;;;;;;6.11;99.87;103296.03;5005089;28;20060;-65
2021/12/19 10:09:18;;;;;;;21.35;7.30;;;;;;;6.13;99.73;103294.50;5010087;28;20504;-65
2021/12/19 10:14:35;;;;;;;23.42;7.53;;;;;;;6.15;99.70;103288.66;5008236;28;20037;-65
2021/12/19 10:17:04;;;;;;;23.60;7.82;;;;;;;6.16;100.00;103290.47;5009034;28;20040;-65
2021/12/19 10:19:50;;;;;;;25.38;7.70;;;;;;;6.17;100.00;103281.00;5009641;28;20087;-65
2021/12/19 10:22:36;;;;;;;24.40;7.95;;;;;;;6.18;99.91;103283.72;5009872;28;20095;-65
2021/12/19 10:25:22;;;;;;;24.40;7.90;;;;;;;6.19;100.00;103277.75;4998060;28;20037;-65
2021/12/19 10:27:58;;;;;;;25.48;8.40;;;;;;;6.19;99.51;103272.59;5006972;28;20033;-65
2021/12/19 10:30:30;;;;;;;27.65;9.23;;;;;;;6.22;99.82;103277.13;5006668;28;20428;-65
2021/12/19 10:32:58;;;;;;;24.67;9.13;;;;;;;6.23;99.53;103268.56;5008453;28;20080;-65
2021/12/19 10:35:28;;;;;;;23.80;8.60;;;;;;;6.23;99.67;103261.72;5005668;28;20535;-65
2021/12/19 10:37:55;;;;;;;24.98;9.25;;;;;;;6.24;99.51;103262.59;5008886;28;20460;-65
2021/12/19 10:40:21;;;;;;;28.20;9.40;;;;;;;6.26;99.88;103263.66;5008315;28;20029;-65
2021/12/19 10:43:07;;;;;;;30.40;9.45;;;;;;;6.27;99.66;103262.84;4997328;28;20758;-70
2021/12/19 10:45:51;;;;;;;22.88;8.30;;;;;;;6.29;99.63;103260.41;5008392;28;20032;-72
2021/12/19 10:48:26;;;;;;;28.80;8.32;;;;;;;6.32;99.94;103256.34;5010973;28;20029;-73
2021/12/19 10:50:56;;;;;;;26.30;7.43;;;;;;;6.34;99.44;103246.13;5012079;28;20061;-73
2021/12/19 10:53:45;;;;;;;22.42;7.45;;;;;;;6.35;99.33;103245.34;5008495;28;20294;-73
2021/12/19 10:56:16;;;;;;;;;;;;;;;6.39;99.45;103243.13;5008726;28;20034;-73
2021/12/19 10:58:56;;;;;;;16.85;5.78;;;;;;;6.37;98.55;103241.19;5010841;28;19967;-73
2021/12/19 11:01:25;;;;;;;17.52;6.30;;;;;;;6.36;98.44;103242.88;5005115;28;20030;-73
2021/12/19 11:04:04;;;;;;;17.85;6.15;;;;;;;6.36;98.87;103237.69;5013279;28;20083;-73
2021/12/19 11:06:37;;;;;;;15.52;5.88;;;;;;;6.37;98.48;103236.94;5004947;28;20500;-73
2021/12/19 11:09:15;;;;;;;17.80;6.22;;;;;;;6.37;98.43;103228.22;5010217;28;20026;-73
2021/12/19 11:11:48;;;;;;;16.38;5.70;;;;;;;6.38;98.70;103227.47;5013043;28;20099;-73
2021/12/19 11:14:18;;;;;;;14.63;5.05;;;;;;;6.38;98.23;103214.50;5010961;28;20510;-73
2021/12/19 11:16:44;;;;;;;13.82;4.93;;;;;;;6.37;98.08;103203.25;5003454;28;20029;-73
2021/12/19 11:19:10;;;;;;;14.60;5.03;;;;;;;6.37;98.73;103211.03;5013113;28;20553;-73
2021/12/19 11:21:36;;;;;;;13.93;4.95;;;;;;;6.38;98.15;103205.03;5013066;28;20065;-73
2021/12/19 11:24:08;;;;;;;14.15;4.80;;;;;;;6.39;97.91;103199.09;5012448;28;20026;-73
2021/12/19 11:26:34;;;;;;;13.73;4.80;;;;;;;6.41;97.99;103192.34;5012506;28;20041;-73
2021/12/19 11:29:00;;;;;;;12.80;4.32;;;;;;;6.42;98.46;103190.66;5011549;28;20022;-73
2021/12/19 11:31:28;;;;;;;12.57;3.97;;;;;;;6.42;98.36;103178.63;5011601;28;20026;-73
2021/12/19 11:34:09;;;;;;;12.18;4.10;;;;;;;6.44;98.29;103176.13;5011918;28;20033;-73
2021/12/19 11:36:39;;;;;;;14.85;4.45;;;;;;;6.44;98.01;103169.31;5002420;28;20037;-73
2021/12/19 11:39:06;;;;;;;10.27;3.83;;;;;;;6.46;98.48;103168.50;5004932;28;20025;-73
2021/12/19 11:41:34;;;;;;;12.88;3.92;;;;;;;6.48;98.35;103169.53;5009501;28;20026;-73
2021/12/19 11:44:06;;;;;;;11.00;3.85;;;;;;;6.48;97.99;103170.44;5012208;28;20386;-73
2021/12/19 11:47:07;;;;;;;12.43;4.38;;;;;;;6.52;98.30;103169.00;5009049;28;20052;-73
2021/12/19 11:49:32;;;;;;;9.45;3.25;;;;;;;6.52;97.47;103163.81;5004644;28;20033;-73
2021/12/19 11:52:22;;;;;;;10.38;3.45;;;;;;;6.53;97.71;103163.94;5010500;28;20543;-73
2021/12/19 11:55:19;;;;;;;9.10;3.17;;;;;;;6.54;97.26;103159.63;5012053;28;20032;-73
2021/12/19 11:58:07;;;;;;;9.32;3.50;;;;;;;6.53;96.86;103153.56;5009045;28;20456;-73
2021/12/19 12:00:43;;;;;;;9.63;3.20;;;;;;;6.53;96.79;103148.38;5011911;28;20103;-73
2021/12/19 12:03:11;;;;;;;8.20;3.03;;;;;;;6.54;96.53;103149.28;5019878;28;20607;-73
2021/12/19 12:05:38;;;;;;;8.88;3.00;;;;;;;6.55;96.64;103151.09;5012267;28;20157;-73
2021/12/19 12:08:10;;;;;;;7.97;2.55;;;;;;;6.56;95.87;103152.88;5038826;28;20038;-73
2021/12/19 12:10:48;;;;;;;7.57;2.67;;;;;;;6.56;96.25;103153.81;5011119;28;20029;-73
2021/12/19 12:13:40;;;;;;;8.30;2.72;;;;;;;6.58;96.16;103140.97;5009793;28;20057;-73
2021/12/19 12:16:20;;;;;;;9.32;3.35;;;;;;;6.58;96.15;103146.16;5010482;28;20448;-73
2021/12/19 12:18:54;;;;;;;10.02;3.42;;;;;;;6.59;95.84;103137.59;5010581;28;20087;-73
2021/12/19 12:21:29;;;;;;;9.80;3.33;;;;;;;6.60;95.54;103136.78;5008505;28;20495;-73